Terminal Aerodrome Forecast
Issued by NWS Mobile, AL

Home | Current Version | Previous Version | Text Only | Print | Product List | Glossary On
Versions: 1 2 3 4 5 6 7 8 9 10 11 12 13 14 15 16 17
000
FTUS44 KMOB 231200 AAA
TAFPNS
TAF AMD
KPNS 231218Z 2312/2412 35004KT 4SM BR SKC
      TEMPO 2312/2313 1/2SM FG
     FM231800 15006KT P6SM SCT035
     FM240200 VRB03KT P6SM SKC=

USA.gov is the U.S. government's official web portal to all federal, state and local government web resources and services.